createdAt,value
2024-05-09T00:00:45.915Z,62.35
2024-05-09T00:05:47.632Z,62.94
2024-05-09T00:10:49.547Z,62.04
2024-05-09T00:15:51.236Z,61.99
2024-05-09T00:20:53.129Z,61.76
2024-05-09T00:25:54.765Z,61.38
2024-05-09T00:30:56.354Z,62.04
2024-05-09T00:35:57.960Z,62.00
2024-05-09T00:40:59.604Z,62.27
2024-05-09T00:46:02.102Z,62.56
2024-05-09T00:51:04.901Z,62.90
2024-05-09T00:56:09.750Z,62.99
2024-05-09T01:01:11.472Z,62.39
2024-05-09T01:06:13.123Z,62.03
2024-05-09T01:11:16.464Z,62.33
2024-05-09T01:16:18.087Z,61.78
2024-05-09T01:21:20.201Z,62.01
2024-05-09T01:26:22.382Z,61.56
2024-05-09T01:31:24.039Z,62.81
2024-05-09T01:36:25.914Z,62.48
2024-05-09T01:41:27.744Z,61.74
2024-05-09T01:46:29.872Z,62.21
2024-05-09T01:51:31.922Z,62.23
2024-05-09T01:56:33.919Z,62.51
2024-05-09T02:01:55.616Z,62.58
2024-05-09T02:06:57.260Z,62.01
2024-05-09T02:11:59.055Z,61.96
2024-05-09T02:17:00.699Z,62.04
2024-05-09T02:22:02.608Z,62.27
2024-05-09T02:27:04.767Z,61.66
2024-05-09T02:32:06.968Z,62.05
2024-05-09T02:37:08.638Z,62.24
2024-05-09T02:42:10.520Z,62.46
2024-05-09T02:47:12.739Z,62.28
2024-05-09T02:52:18.648Z,62.38
2024-05-09T02:57:20.513Z,62.40
2024-05-09T03:02:22.232Z,61.21
2024-05-09T03:07:23.881Z,61.45
2024-05-09T03:12:25.501Z,61.91
2024-05-09T03:17:27.705Z,61.94
2024-05-09T03:22:29.931Z,61.75
2024-05-09T03:27:31.829Z,61.67
2024-05-09T03:32:33.877Z,61.80
2024-05-09T03:37:35.978Z,62.50
2024-05-09T03:42:41.620Z,62.09
2024-05-09T03:47:43.750Z,63.43
2024-05-09T03:52:45.557Z,63.59
2024-05-09T03:57:47.149Z,63.04
2024-05-09T04:02:49.483Z,62.49
2024-05-09T04:07:51.303Z,63.05
2024-05-09T04:12:53.348Z,63.12
2024-05-09T04:17:56.143Z,63.38
2024-05-09T04:22:57.971Z,63.78
2024-05-09T04:27:59.700Z,63.39
2024-05-09T04:33:02.436Z,63.02
2024-05-09T04:38:05.089Z,63.05
2024-05-09T04:43:13.900Z,63.06
2024-05-09T04:48:17.119Z,62.74
2024-05-09T04:53:19.215Z,63.36
2024-05-09T04:58:21.139Z,63.65
2024-05-09T05:03:23.075Z,64.01
2024-05-09T05:08:24.860Z,63.94
2024-05-09T05:13:37.949Z,64.10
2024-05-09T05:18:41.239Z,63.45
2024-05-09T05:23:43.154Z,62.99
2024-05-09T05:28:45.100Z,62.99
2024-05-09T05:33:48.647Z,63.62
2024-05-09T05:38:50.736Z,63.41
2024-05-09T05:43:52.780Z,62.92
2024-05-09T05:48:54.459Z,62.08
2024-05-09T05:53:56.348Z,62.31
2024-05-09T05:58:58.210Z,62.02
2024-05-09T06:03:59.974Z,61.87
2024-05-09T06:09:01.655Z,61.96
2024-05-09T06:14:05.404Z,62.00
2024-05-09T06:19:07.146Z,63.12
2024-05-09T06:24:08.754Z,62.55
2024-05-09T06:29:10.439Z,62.08
2024-05-09T06:34:12.447Z,61.41
2024-05-09T06:39:14.435Z,61.65
2024-05-09T06:44:16.269Z,62.26
2024-05-09T06:49:18.248Z,60.38
2024-05-09T06:54:19.903Z,58.89
2024-05-09T06:59:21.731Z,59.06
2024-05-09T07:04:23.754Z,56.65
2024-05-09T07:09:25.639Z,55.65
2024-05-09T07:14:28.062Z,53.96
2024-05-09T07:19:30.014Z,53.19
2024-05-09T07:24:31.713Z,51.82
2024-05-09T07:29:36.149Z,50.92
2024-05-09T07:34:39.099Z,50.34
2024-05-09T07:39:41.258Z,50.53
2024-05-09T07:44:43.397Z,50.33
2024-05-09T07:51:32.515Z,47.71
2024-05-09T07:55:07.254Z,47.50
2024-05-09T08:00:14.243Z,46.33
2024-05-09T08:05:16.177Z,46.23
2024-05-09T08:10:22.171Z,45.22
2024-05-09T08:15:28.864Z,44.42
2024-05-09T08:20:35.131Z,43.42
2024-05-09T08:25:37.161Z,43.08
2024-05-09T08:30:39.016Z,42.68
2024-05-09T08:35:40.866Z,42.68
2024-05-09T08:40:42.841Z,40.85
2024-05-09T08:45:46.127Z,41.11
2024-05-09T08:50:52.053Z,41.70
2024-05-09T08:55:55.385Z,40.60
2024-05-09T09:00:57.927Z,38.67
2024-05-09T09:06:06.736Z,37.30
2024-05-09T09:11:08.455Z,39.77
2024-05-09T09:16:10.197Z,40.01
2024-05-09T09:21:11.939Z,39.86
2024-05-09T09:26:17.236Z,39.28
2024-05-09T09:31:19.579Z,37.65
2024-05-09T09:36:21.244Z,36.83
2024-05-09T09:41:27.524Z,38.65
2024-05-09T09:46:30.479Z,38.16
2024-05-09T09:51:33.595Z,36.89
2024-05-09T09:56:38.715Z,37.50
2024-05-09T10:01:44.920Z,36.59
2024-05-09T10:06:53.090Z,37.64
2024-05-09T10:11:59.950Z,33.46
2024-05-09T10:17:05.751Z,34.80
2024-05-09T10:22:10.630Z,36.26
2024-05-09T10:27:12.546Z,34.20
2024-05-09T10:32:14.516Z,34.24
2024-05-09T10:37:16.275Z,34.31
2024-05-09T10:42:19.498Z,33.91
2024-05-09T10:47:21.612Z,34.22
2024-05-09T10:52:24.555Z,31.68
2024-05-09T10:57:27.575Z,32.52
2024-05-09T11:02:29.636Z,33.01
2024-05-09T11:07:32.014Z,32.13
2024-05-09T11:12:33.717Z,33.81
2024-05-09T11:17:38.245Z,32.14
2024-05-09T11:22:39.884Z,32.34
2024-05-09T11:27:42.382Z,34.76
2024-05-09T11:32:44.361Z,35.16
2024-05-09T11:37:46.641Z,33.86
2024-05-09T11:42:50.009Z,32.45
2024-05-09T11:47:53.620Z,34.17
2024-05-09T11:52:55.289Z,34.96
2024-05-09T11:57:57.561Z,33.42
2024-05-09T12:02:59.794Z,32.47
2024-05-09T12:08:02.585Z,31.27
2024-05-09T12:13:06.289Z,32.29
2024-05-09T12:18:09.138Z,29.88
2024-05-09T12:23:10.998Z,30.57
2024-05-09T12:28:12.743Z,30.32
2024-05-09T12:33:14.867Z,29.29
2024-05-09T12:38:16.620Z,29.24
2024-05-09T12:43:18.455Z,28.42
2024-05-09T12:48:20.274Z,27.94
2024-05-09T12:53:21.888Z,30.14
2024-05-09T12:58:23.706Z,27.04
2024-05-09T13:03:25.485Z,29.01
2024-05-09T13:08:27.328Z,29.75
2024-05-09T13:13:29.377Z,28.98
2024-05-09T13:18:31.107Z,26.92
2024-05-09T13:23:32.891Z,28.12
2024-05-09T13:28:34.879Z,27.84
2024-05-09T13:33:36.884Z,28.86
2024-05-09T13:38:38.596Z,27.79
2024-05-09T13:43:40.214Z,31.06
2024-05-09T13:48:42.111Z,29.81
2024-05-09T13:53:43.795Z,29.30
2024-05-09T13:58:45.572Z,27.75
2024-05-09T14:03:47.275Z,27.71
2024-05-09T14:08:49.347Z,27.66
2024-05-09T14:13:51.381Z,28.65
2024-05-09T14:18:53.250Z,29.38
2024-05-09T14:23:54.938Z,27.31
2024-05-09T14:28:56.997Z,28.53
2024-05-09T14:33:59.046Z,27.70
2024-05-09T14:39:00.764Z,27.80
2024-05-09T14:44:02.751Z,28.26
2024-05-09T14:49:05.733Z,28.87
2024-05-09T14:54:08.132Z,27.09
2024-05-09T14:59:09.847Z,28.02
2024-05-09T15:04:11.589Z,27.76
2024-05-09T15:09:13.702Z,27.81
2024-05-09T15:14:15.903Z,27.47
2024-05-09T15:19:17.816Z,29.64
2024-05-09T15:24:20.087Z,29.94
2024-05-09T15:29:21.800Z,27.94
2024-05-09T15:34:23.421Z,30.62
2024-05-09T15:39:25.389Z,28.38
2024-05-09T15:44:26.953Z,28.38
2024-05-09T15:49:28.654Z,27.52
2024-05-09T15:54:30.650Z,29.15
2024-05-09T15:59:33.075Z,28.07
2024-05-09T16:04:34.812Z,28.59
2024-05-09T16:09:37.186Z,28.11
2024-05-09T16:14:39.314Z,27.46
2024-05-09T16:19:41.322Z,29.20
2024-05-09T16:24:43.089Z,29.59
2024-05-09T16:29:45.003Z,30.17
2024-05-09T16:34:48.349Z,31.12
2024-05-09T16:39:50.035Z,29.69
2024-05-09T16:44:51.753Z,29.77
2024-05-09T16:49:53.420Z,30.99
2024-05-09T16:54:55.429Z,29.42
2024-05-09T16:59:57.428Z,30.72
2024-05-09T17:04:59.148Z,31.15
2024-05-09T17:10:00.881Z,31.47
2024-05-09T17:15:02.647Z,31.17
2024-05-09T17:20:08.255Z,31.11
2024-05-09T17:25:11.472Z,31.65
2024-05-09T17:30:21.184Z,31.66
2024-05-09T17:35:31.234Z,32.06
2024-05-09T17:40:36.182Z,32.60
2024-05-09T17:45:40.859Z,31.85
2024-05-09T17:50:43.400Z,33.09
2024-05-09T17:55:45.106Z,32.68
2024-05-09T18:00:46.972Z,33.20
2024-05-09T18:05:48.829Z,34.01
2024-05-09T18:10:52.122Z,34.16
2024-05-09T18:15:55.080Z,34.69
2024-05-09T18:20:56.746Z,34.61
2024-05-09T18:25:58.419Z,35.43
2024-05-09T18:31:00.110Z,37.08
2024-05-09T18:36:01.957Z,38.10
2024-05-09T18:41:03.596Z,37.28
2024-05-09T18:46:05.502Z,39.79
2024-05-09T18:51:07.235Z,39.94
2024-05-09T18:56:09.041Z,41.26
2024-05-09T19:01:11.343Z,41.37
2024-05-09T19:06:13.007Z,42.93
2024-05-09T19:11:14.622Z,42.33
2024-05-09T19:16:16.389Z,44.36
2024-05-09T19:21:18.053Z,44.08
2024-05-09T19:26:19.778Z,46.79
2024-05-09T19:31:21.462Z,46.81
2024-05-09T19:36:29.147Z,47.59
2024-05-09T19:41:30.827Z,46.60
2024-05-09T19:46:32.594Z,46.99
2024-05-09T19:51:34.246Z,48.09
2024-05-09T19:56:35.932Z,48.34
2024-05-09T20:01:37.726Z,47.88
2024-05-09T20:06:40.960Z,48.57
2024-05-09T20:11:42.786Z,48.74
2024-05-09T20:16:44.765Z,49.18
2024-05-09T20:21:46.382Z,48.97
2024-05-09T20:26:48.024Z,49.50
2024-05-09T20:31:49.671Z,50.42
2024-05-09T20:36:51.477Z,50.20
2024-05-09T20:41:54.259Z,50.47
2024-05-09T20:46:55.948Z,50.91
2024-05-09T20:51:57.899Z,50.64
2024-05-09T20:56:59.544Z,51.32
2024-05-09T21:02:01.204Z,51.94
2024-05-09T21:07:02.884Z,51.51
2024-05-09T21:12:05.000Z,51.93
2024-05-09T21:17:06.740Z,52.20
2024-05-09T21:22:08.403Z,52.32
2024-05-09T21:27:10.003Z,52.21
2024-05-09T21:32:11.588Z,52.42
2024-05-09T21:37:13.298Z,53.65
2024-05-09T21:42:14.922Z,53.39
2024-05-09T21:47:16.560Z,53.84
2024-05-09T21:52:19.412Z,53.16
2024-05-09T21:57:21.948Z,53.88
2024-05-09T22:02:24.132Z,53.18
2024-05-09T22:07:26.049Z,53.75
2024-05-09T22:12:27.996Z,53.67
2024-05-09T22:17:30.081Z,53.91
2024-05-09T22:22:32.043Z,54.48
2024-05-09T22:27:34.507Z,54.23
2024-05-09T22:32:36.626Z,54.35
2024-05-09T22:37:38.573Z,53.96
2024-05-09T22:42:41.747Z,54.39
2024-05-09T22:47:43.518Z,55.34
2024-05-09T22:52:45.195Z,55.04
2024-05-09T22:57:47.020Z,54.88
2024-05-09T23:02:49.024Z,55.03
2024-05-09T23:07:50.687Z,55.04
2024-05-09T23:12:52.810Z,55.40
2024-05-09T23:17:55.574Z,54.81
2024-05-09T23:22:57.680Z,55.84
2024-05-09T23:27:59.778Z,56.27
2024-05-09T23:33:02.047Z,55.92
2024-05-09T23:38:04.149Z,55.63
2024-05-09T23:43:06.349Z,55.80
2024-05-09T23:48:08.744Z,55.68
2024-05-09T23:53:11.218Z,55.92
2024-05-09T23:58:13.068Z,56.17
